Time;durP1;ratioP1;P1;durP2;ratioP2;P2;SDS_P1;SDS_P2;PMS_P1;PMS_P2;Temp;Humidity;BMP_temperature;BMP_pressure;BME280_temperature;BME280_humidity;BME280_pressure;Samples;Min_cycle;Max_cycle;Signal;HPM_P1;HPM_P2
2024/03/11 00:00:29;;;;;;;3.70;3.60;;;24.80;1.00;;;;;;2609886;54;20396;-60
2024/03/11 00:02:55;;;;;;;3.60;3.50;;;24.80;1.00;;;;;;2609043;39;20857;-60
2024/03/11 00:05:20;;;;;;;3.50;3.40;;;24.80;1.00;;;;;;2609475;48;20554;-60
2024/03/11 00:07:46;;;;;;;3.60;3.50;;;24.80;1.00;;;;;;2610620;54;20261;-60
2024/03/11 00:10:12;;;;;;;4.00;3.90;;;24.80;1.00;;;;;;2612890;54;20162;-54
2024/03/11 00:12:49;;;;;;;3.73;3.63;;;24.80;1.00;;;;;;2612391;54;20151;-59
2024/03/11 00:15:15;;;;;;;4.10;4.00;;;24.80;1.00;;;;;;2611966;54;20415;-59
2024/03/11 00:17:42;;;;;;;3.83;3.73;;;24.80;1.00;;;;;;2611785;54;20415;-59
2024/03/11 00:20:09;;;;;;;3.80;3.70;;;24.80;1.00;;;;;;2610850;39;22023;-59
2024/03/11 00:22:38;;;;;;;4.00;3.90;;;24.80;1.00;;;;;;2611379;39;20910;-59
2024/03/11 00:25:07;;;;;;;3.80;3.70;;;24.80;1.00;;;;;;2612160;54;20411;-59
2024/03/11 00:27:36;;;;;;;3.80;3.70;;;24.70;1.00;;;;;;2609611;54;21061;-59
2024/03/11 00:30:03;;;;;;;4.00;3.90;;;24.70;1.00;;;;;;2612507;51;20423;-59
2024/03/11 00:32:30;;;;;;;3.60;3.50;;;24.70;1.00;;;;;;2612323;54;20396;-59
2024/03/11 00:34:55;;;;;;;3.80;3.70;;;24.80;1.00;;;;;;2612245;54;20408;-60
2024/03/11 00:37:21;;;;;;;3.13;3.03;;;24.70;1.00;;;;;;2611970;54;20410;-59
2024/03/11 00:39:47;;;;;;;3.53;3.43;;;24.70;1.00;;;;;;2611175;54;20159;-59
2024/03/11 00:42:13;;;;;;;3.40;3.30;;;24.70;1.00;;;;;;2613521;39;20578;-59
2024/03/11 00:44:39;;;;;;;3.70;3.60;;;24.70;1.00;;;;;;2610172;54;20415;-59
2024/03/11 00:47:06;;;;;;;3.53;3.43;;;24.70;1.00;;;;;;2611522;54;20169;-60
2024/03/11 00:49:32;;;;;;;3.30;3.20;;;24.70;1.00;;;;;;2612513;54;20174;-61
2024/03/11 00:51:58;;;;;;;3.57;3.47;;;24.70;1.00;;;;;;2611768;54;20440;-59
2024/03/11 00:54:23;;;;;;;3.60;3.50;;;24.70;1.00;;;;;;2611646;54;20969;-59
2024/03/11 00:56:50;;;;;;;3.80;3.70;;;24.70;1.00;;;;;;2611655;39;21089;-60
2024/03/11 00:59:18;;;;;;;3.63;3.53;;;24.70;1.00;;;;;;2609647;54;20881;-59
2024/03/11 01:01:44;;;;;;;3.70;3.60;;;24.70;1.00;;;;;;2611305;54;20412;-59
2024/03/11 01:04:10;;;;;;;4.03;3.93;;;24.70;1.00;;;;;;2609391;47;20435;-59
2024/03/11 01:06:36;;;;;;;3.70;3.60;;;24.70;1.00;;;;;;2611081;54;20483;-59
2024/03/11 01:09:03;;;;;;;3.57;3.47;;;24.70;1.00;;;;;;2612617;54;20404;-60
2024/03/11 01:11:28;;;;;;;3.60;3.50;;;24.60;1.00;;;;;;2612395;47;20412;-60
2024/03/11 01:13:54;;;;;;;3.50;3.40;;;24.70;1.00;;;;;;2612500;54;21083;-58
2024/03/11 01:16:20;;;;;;;3.63;3.53;;;24.60;1.00;;;;;;2612135;54;20249;-60
2024/03/11 01:18:45;;;;;;;3.50;3.40;;;24.70;1.00;;;;;;2612409;54;20528;-60
2024/03/11 01:21:13;;;;;;;4.20;4.10;;;24.70;1.00;;;;;;2612523;54;20170;-58
2024/03/11 01:23:39;;;;;;;3.63;3.53;;;24.70;1.00;;;;;;2610796;54;20170;-59
2024/03/11 01:26:08;;;;;;;3.97;3.87;;;24.70;1.00;;;;;;2611620;54;20404;-60
2024/03/11 01:28:33;;;;;;;3.60;3.50;;;24.70;1.00;;;;;;2613152;54;20403;-60
2024/03/11 01:30:59;;;;;;;3.93;3.83;;;24.60;1.00;;;;;;2608791;54;20400;-59
2024/03/11 01:33:24;;;;;;;4.10;4.00;;;24.60;1.00;;;;;;2612287;54;20242;-59
2024/03/11 01:35:53;;;;;;;3.70;3.60;;;24.60;1.00;;;;;;2611356;54;20166;-59
2024/03/11 01:38:19;;;;;;;3.63;3.53;;;24.60;1.00;;;;;;2611638;54;20205;-59
2024/03/11 01:40:46;;;;;;;5.60;5.40;;;24.60;1.00;;;;;;2611786;54;20427;-61
2024/03/11 01:43:14;;;;;;;4.00;3.90;;;24.60;1.00;;;;;;2611499;54;20185;-60
2024/03/11 01:45:40;;;;;;;3.73;3.63;;;24.60;1.00;;;;;;2613020;31;20914;-59
2024/03/11 01:48:09;;;;;;;5.17;4.97;;;24.60;1.00;;;;;;2610902;54;20968;-60
2024/03/11 01:50:38;;;;;;;3.50;3.40;;;24.60;1.00;;;;;;2611366;54;20475;-60
2024/03/11 01:53:04;;;;;;;3.70;3.60;;;24.60;1.00;;;;;;2612197;39;20924;-59
2024/03/11 01:55:31;;;;;;;3.80;3.70;;;24.60;1.00;;;;;;2611984;54;21385;-60
2024/03/11 01:57:59;;;;;;;3.80;3.70;;;24.60;1.00;;;;;;2610503;47;20450;-61
2024/03/11 02:00:26;;;;;;;3.80;3.70;;;24.60;1.00;;;;;;2610415;54;20438;-60
2024/03/11 02:02:53;;;;;;;3.90;3.80;;;24.60;1.00;;;;;;2610679;54;20466;-60
2024/03/11 02:05:24;;;;;;;3.40;3.30;;;24.60;1.00;;;;;;2610614;54;20419;-59
2024/03/11 02:07:58;;;;;;;3.60;3.50;;;24.60;1.00;;;;;;2610827;54;20972;-59
2024/03/11 02:10:24;;;;;;;3.70;3.60;;;24.60;1.00;;;;;;2609580;54;22933;-60
2024/03/11 02:12:51;;;;;;;3.40;3.30;;;24.50;1.00;;;;;;2612567;54;20406;-60
2024/03/11 02:15:17;;;;;;;3.50;3.40;;;24.60;1.00;;;;;;2610144;54;20430;-60
2024/03/11 02:17:44;;;;;;;3.90;3.80;;;24.60;1.00;;;;;;2612345;39;20940;-59
2024/03/11 02:20:17;;;;;;;3.80;3.70;;;24.50;1.00;;;;;;2612285;54;20396;-59
2024/03/11 02:22:45;;;;;;;3.60;3.50;;;24.50;1.00;;;;;;2610784;54;20419;-60
2024/03/11 02:25:20;;;;;;;3.70;3.60;;;24.60;1.00;;;;;;2609818;54;20429;-60
2024/03/11 02:27:47;;;;;;;3.60;3.50;;;24.50;1.00;;;;;;2611931;39;20827;-60
2024/03/11 02:30:15;;;;;;;3.80;3.70;;;24.50;1.00;;;;;;2611231;54;20972;-60
2024/03/11 02:32:41;;;;;;;3.80;3.70;;;24.50;1.00;;;;;;2612691;54;20903;-60
2024/03/11 02:35:07;;;;;;;3.70;3.60;;;24.50;1.00;;;;;;2612880;54;20428;-61
2024/03/11 02:37:33;;;;;;;3.67;3.57;;;24.50;1.00;;;;;;2611604;54;20470;-60
2024/03/11 02:40:00;;;;;;;3.70;3.60;;;24.50;1.00;;;;;;2612014;54;20404;-58
2024/03/11 02:42:25;;;;;;;3.67;3.57;;;24.50;1.00;;;;;;2610060;54;20420;-58
2024/03/11 02:44:54;;;;;;;3.73;3.63;;;24.50;1.00;;;;;;2612701;47;20974;-58
2024/03/11 02:47:20;;;;;;;3.90;3.80;;;24.50;1.00;;;;;;2612112;54;20166;-58
2024/03/11 02:49:47;;;;;;;3.70;3.60;;;24.50;1.00;;;;;;2610045;54;20411;-58
2024/03/11 02:52:12;;;;;;;3.60;3.50;;;24.50;1.00;;;;;;2610811;54;20450;-56
2024/03/11 02:54:38;;;;;;;3.93;3.83;;;24.50;1.00;;;;;;2611881;54;20428;-58
2024/03/11 02:57:05;;;;;;;4.10;4.00;;;24.50;1.00;;;;;;2610579;54;20200;-58
2024/03/11 02:59:32;;;;;;;3.87;3.77;;;24.50;1.00;;;;;;2609877;54;20153;-57
2024/03/11 03:01:57;;;;;;;3.90;3.80;;;24.50;1.00;;;;;;2611163;54;20466;-58
2024/03/11 03:04:23;;;;;;;4.10;4.00;;;24.50;1.00;;;;;;2609631;54;20388;-58
2024/03/11 03:06:49;;;;;;;4.00;3.90;;;24.50;1.00;;;;;;2608329;54;20175;-56
2024/03/11 03:09:15;;;;;;;4.13;4.03;;;24.50;1.00;;;;;;2610186;54;20676;-59
2024/03/11 03:11:41;;;;;;;3.77;3.67;;;24.50;1.00;;;;;;2609872;54;20175;-57
2024/03/11 03:14:07;;;;;;;3.80;3.70;;;24.50;1.00;;;;;;2607792;54;20181;-58
2024/03/11 03:16:32;;;;;;;3.50;3.40;;;24.50;1.00;;;;;;2611061;54;20455;-58
2024/03/11 03:18:58;;;;;;;3.67;3.57;;;24.50;1.00;;;;;;2611709;54;20702;-58
2024/03/11 03:21:25;;;;;;;3.67;3.57;;;24.50;1.00;;;;;;2612084;54;20483;-56
2024/03/11 03:23:51;;;;;;;3.90;3.80;;;24.50;1.00;;;;;;2610417;47;20435;-55
2024/03/11 03:26:17;;;;;;;3.37;3.27;;;24.50;1.00;;;;;;2612001;54;20431;-58
2024/03/11 03:28:42;;;;;;;4.40;4.30;;;24.50;1.00;;;;;;2612663;39;20932;-58
2024/03/11 03:31:09;;;;;;;4.10;4.00;;;24.50;1.00;;;;;;2612360;54;20411;-59
2024/03/11 03:33:35;;;;;;;5.37;5.17;;;24.50;1.00;;;;;;2611301;54;20194;-59
2024/03/11 03:36:02;;;;;;;3.80;3.70;;;24.50;1.00;;;;;;2609778;47;20420;-59
2024/03/11 03:38:28;;;;;;;4.00;3.90;;;24.50;1.00;;;;;;2609055;47;20515;-60
2024/03/11 03:40:53;;;;;;;3.70;3.60;;;24.50;1.00;;;;;;2610038;54;20414;-61
2024/03/11 03:43:19;;;;;;;4.97;4.77;;;24.50;1.00;;;;;;2611263;54;20398;-61
2024/03/11 03:45:44;;;;;;;3.40;3.30;;;24.50;1.00;;;;;;2610668;54;20178;-60
2024/03/11 03:48:10;;;;;;;3.40;3.30;;;24.50;1.00;;;;;;2612732;54;20182;-61
2024/03/11 03:50:37;;;;;;;5.33;4.93;;;24.60;1.00;;;;;;2610821;39;20558;-63
2024/03/11 03:53:03;;;;;;;3.70;3.60;;;24.50;1.00;;;;;;2612935;39;20880;-63
2024/03/11 03:55:29;;;;;;;3.50;3.40;;;24.50;1.00;;;;;;2610507;54;20486;-64
2024/03/11 03:57:54;;;;;;;3.20;3.10;;;24.60;1.00;;;;;;2609699;54;20167;-64
2024/03/11 04:00:20;;;;;;;3.60;3.50;;;24.50;1.00;;;;;;2610138;47;20454;-64
2024/03/11 04:02:50;;;;;;;4.30;4.20;;;24.50;1.00;;;;;;2610185;54;20748;-61
2024/03/11 04:05:17;;;;;;;4.20;4.10;;;24.50;1.00;;;;;;2609184;54;20290;-63
2024/03/11 04:07:43;;;;;;;4.80;4.60;;;24.50;1.00;;;;;;2611635;54;20407;-63
2024/03/11 04:10:13;;;;;;;3.90;3.80;;;24.50;1.00;;;;;;2609626;54;20426;-64
2024/03/11 04:12:42;;;;;;;4.30;4.20;;;24.50;1.00;;;;;;2611142;54;20534;-64
2024/03/11 04:15:11;;;;;;;4.00;3.90;;;24.50;1.00;;;;;;2611320;47;20439;-63
2024/03/11 04:17:38;;;;;;;4.10;4.00;;;24.50;1.00;;;;;;2610325;39;20696;-63
2024/03/11 04:20:11;;;;;;;4.20;4.10;;;24.50;1.00;;;;;;2609182;54;20439;-64
2024/03/11 04:22:41;;;;;;;4.40;4.30;;;24.50;1.00;;;;;;2612935;54;20415;-64
2024/03/11 04:25:18;;;;;;;4.23;4.13;;;24.50;1.00;;;;;;2613431;31;20934;-64
2024/03/11 04:27:45;;;;;;;4.20;4.10;;;24.50;1.00;;;;;;2612864;47;20435;-63
2024/03/11 04:30:15;;;;;;;4.03;3.93;;;24.50;1.00;;;;;;2611649;54;20395;-63
2024/03/11 04:32:43;;;;;;;4.30;4.20;;;24.40;1.00;;;;;;2612860;54;20479;-63
2024/03/11 04:35:10;;;;;;;4.17;4.07;;;24.50;1.00;;;;;;2613212;54;20400;-63
2024/03/11 04:37:36;;;;;;;4.00;3.90;;;24.50;1.00;;;;;;2611417;54;20475;-63
2024/03/11 04:40:06;;;;;;;4.00;3.90;;;24.50;1.00;;;;;;2610752;54;20399;-63
2024/03/11 04:42:32;;;;;;;4.07;3.97;;;24.50;1.00;;;;;;2611190;54;20504;-63
2024/03/11 04:44:57;;;;;;;5.57;5.37;;;24.50;1.00;;;;;;2610917;47;20462;-63
2024/03/11 04:47:23;;;;;;;3.90;3.80;;;24.50;1.00;;;;;;2611844;54;20412;-63
2024/03/11 04:49:49;;;;;;;3.60;3.50;;;24.50;1.00;;;;;;2612638;54;20789;-62
2024/03/11 04:52:16;;;;;;;4.00;3.90;;;24.50;1.00;;;;;;2611791;54;20442;-62
2024/03/11 04:54:41;;;;;;;3.90;3.80;;;24.40;1.00;;;;;;2611884;54;20424;-62
2024/03/11 04:57:07;;;;;;;4.00;3.90;;;24.40;1.00;;;;;;2611002;39;21468;-62
2024/03/11 04:59:33;;;;;;;3.80;3.70;;;24.40;1.00;;;;;;2609943;54;20162;-59
2024/03/11 05:01:58;;;;;;;3.70;3.60;;;24.40;1.00;;;;;;2610091;54;20186;-59
2024/03/11 05:04:24;;;;;;;3.70;3.60;;;24.40;1.00;;;;;;2610713;54;20301;-59
2024/03/11 05:06:49;;;;;;;3.80;3.70;;;24.40;1.00;;;;;;2608763;54;20246;-59
2024/03/11 05:09:15;;;;;;;3.03;2.93;;;24.50;1.00;;;;;;2611397;54;20166;-58
2024/03/11 05:11:41;;;;;;;3.80;3.70;;;24.50;1.00;;;;;;2610788;54;20189;-58
2024/03/11 05:14:06;;;;;;;3.93;3.83;;;24.50;1.00;;;;;;2609901;54;20154;-59
2024/03/11 05:16:32;;;;;;;4.20;4.10;;;24.50;1.00;;;;;;2610636;47;20166;-59
2024/03/11 05:18:58;;;;;;;4.53;4.33;;;24.40;1.00;;;;;;2609514;54;20163;-59
2024/03/11 05:21:25;;;;;;;2.90;2.80;;;24.40;1.00;;;;;;2608433;54;20734;-59
2024/03/11 05:23:50;;;;;;;3.50;3.40;;;24.40;1.00;;;;;;2611472;54;20158;-59
2024/03/11 05:26:18;;;;;;;3.87;3.77;;;24.40;1.00;;;;;;2611461;39;20827;-59
2024/03/11 05:28:44;;;;;;;3.70;3.60;;;24.40;1.00;;;;;;2611022;47;20423;-59
2024/03/11 05:31:11;;;;;;;6.57;6.33;;;24.50;1.00;;;;;;2610716;39;20497;-59
2024/03/11 05:33:36;;;;;;;4.80;4.60;;;24.50;1.00;;;;;;2611158;54;20419;-59
2024/03/11 05:36:02;;;;;;;3.97;3.87;;;24.50;1.00;;;;;;2608226;54;21126;-60
2024/03/11 05:38:28;;;;;;;3.90;3.80;;;24.50;1.00;;;;;;2611689;54;20329;-59
2024/03/11 05:40:53;;;;;;;3.20;3.10;;;24.50;1.00;;;;;;2611240;54;20435;-61
2024/03/11 05:43:19;;;;;;;3.40;3.30;;;24.50;1.00;;;;;;2608812;54;20154;-60
2024/03/11 05:45:47;;;;;;;3.50;3.40;;;24.50;1.00;;;;;;2610310;54;20170;-59
2024/03/11 05:48:13;;;;;;;3.50;3.40;;;24.50;1.00;;;;;;2609940;54;20163;-59
2024/03/11 05:50:39;;;;;;;3.30;3.20;;;24.50;1.00;;;;;;2611179;54;20399;-60
2024/03/11 05:53:05;;;;;;;4.07;3.97;;;24.50;1.00;;;;;;2610608;54;20446;-60
2024/03/11 05:55:34;;;;;;;3.70;3.60;;;24.50;1.00;;;;;;2607218;54;20150;-60
2024/03/11 05:58:08;;;;;;;3.00;2.90;;;24.50;1.00;;;;;;2609668;54;20426;-62
2024/03/11 06:00:43;;;;;;;3.90;3.80;;;24.50;1.00;;;;;;2607449;54;20426;-63
2024/03/11 06:03:12;;;;;;;3.93;3.83;;;24.50;1.00;;;;;;2611013;54;20402;-63
2024/03/11 06:05:38;;;;;;;3.40;3.30;;;24.50;1.00;;;;;;2612686;39;20811;-63
2024/03/11 06:08:04;;;;;;;4.40;4.30;;;24.50;1.00;;;;;;2611951;54;20466;-63
2024/03/11 06:10:30;;;;;;;3.70;3.60;;;24.60;1.00;;;;;;2608387;39;20801;-63
2024/03/11 06:12:57;;;;;;;3.00;2.90;;;24.50;1.00;;;;;;2611171;54;20483;-64
2024/03/11 06:15:24;;;;;;;3.07;2.97;;;24.60;1.00;;;;;;2611871;54;20181;-63
2024/03/11 06:17:50;;;;;;;3.80;3.70;;;24.60;1.00;;;;;;2610749;54;20403;-64
2024/03/11 06:20:16;;;;;;;3.57;3.47;;;24.60;1.00;;;;;;2610154;31;20909;-62
2024/03/11 06:22:42;;;;;;;3.00;2.90;;;24.60;1.00;;;;;;2611282;54;20155;-61
2024/03/11 06:25:09;;;;;;;3.20;3.10;;;24.60;1.00;;;;;;2609661;47;20958;-63
2024/03/11 06:27:36;;;;;;;3.80;3.70;;;24.60;1.00;;;;;;2610215;54;20162;-63
2024/03/11 06:30:02;;;;;;;5.70;5.50;;;24.50;1.00;;;;;;2610542;47;20427;-62
2024/03/11 06:32:30;;;;;;;6.73;6.53;;;24.60;1.00;;;;;;2611324;47;20435;-63
2024/03/11 06:34:57;;;;;;;6.70;6.50;;;24.60;1.00;;;;;;2612023;39;20807;-62
2024/03/11 06:37:23;;;;;;;6.30;6.10;;;24.60;1.00;;;;;;2611701;54;20436;-61
2024/03/11 06:39:49;;;;;;;6.63;6.43;;;24.60;1.00;;;;;;2611701;54;20427;-62
2024/03/11 06:42:17;;;;;;;7.30;7.10;;;24.60;1.00;;;;;;2611562;54;20182;-62
2024/03/11 06:44:43;;;;;;;7.93;7.70;;;24.60;1.00;;;;;;2612421;39;20548;-62
2024/03/11 06:47:08;;;;;;;7.00;6.80;;;24.60;1.00;;;;;;2612149;54;20398;-61
2024/03/11 06:49:34;;;;;;;6.67;6.47;;;24.60;1.00;;;;;;2612198;54;20158;-62
2024/03/11 06:52:01;;;;;;;6.90;6.70;;;24.60;1.00;;;;;;2610934;54;20171;-62
2024/03/11 06:54:26;;;;;;;6.90;6.70;;;24.60;1.00;;;;;;2612158;47;20198;-61
2024/03/11 06:56:52;;;;;;;8.30;8.00;;;24.70;1.00;;;;;;2610652;54;20434;-60
2024/03/11 06:59:18;;;;;;;7.87;7.67;;;24.70;1.00;;;;;;2606404;54;20170;-58
2024/03/11 07:01:43;;;;;;;8.33;8.03;;;24.70;1.00;;;;;;2610795;54;20169;-60
2024/03/11 07:04:11;;;;;;;8.37;8.07;;;24.70;1.00;;;;;;2612486;54;20221;-58
2024/03/11 07:06:39;;;;;;;8.87;8.57;;;24.70;1.00;;;;;;2611369;54;20399;-57
2024/03/11 07:09:05;;;;;;;8.00;7.70;;;24.70;1.00;;;;;;2612133;54;20431;-56
2024/03/11 07:11:30;;;;;;;6.37;6.17;;;24.80;1.00;;;;;;2611726;47;20530;-60
2024/03/11 07:13:57;;;;;;;6.43;6.23;;;24.90;1.00;;;;;;2611872;54;20939;-60
2024/03/11 07:16:23;;;;;;;5.30;5.10;;;24.90;1.00;;;;;;2610842;54;20233;-60
2024/03/11 07:18:53;;;;;;;7.10;6.90;;;24.90;1.00;;;;;;2609898;54;20434;-59
2024/03/11 07:21:19;;;;;;;7.27;7.07;;;24.90;1.00;;;;;;2609703;54;20418;-61
2024/03/11 07:23:48;;;;;;;7.30;7.10;;;24.90;1.00;;;;;;2611772;54;20431;-61
2024/03/11 07:26:14;;;;;;;17.67;13.73;;;24.90;1.00;;;;;;2611121;54;20167;-61
2024/03/11 07:28:40;;;;;;;7.50;7.30;;;24.90;1.00;;;;;;2611978;54;20403;-61
2024/03/11 07:31:06;;;;;;;11.10;10.70;;;24.90;1.00;;;;;;2611607;54;20627;-61
2024/03/11 07:33:31;;;;;;;8.30;8.00;;;24.90;1.00;;;;;;2611301;54;20198;-62
2024/03/11 07:35:57;;;;;;;7.23;7.03;;;24.90;1.00;;;;;;2611594;47;20416;-61
2024/03/11 07:38:23;;;;;;;7.80;7.60;;;24.90;1.00;;;;;;2611540;54;20278;-61
2024/03/11 07:40:49;;;;;;;7.27;7.07;;;24.80;1.00;;;;;;2611828;39;20676;-60
2024/03/11 07:43:15;;;;;;;6.20;6.00;;;24.80;1.00;;;;;;2610976;54;20162;-60
2024/03/11 07:45:41;;;;;;;7.30;7.10;;;24.80;1.00;;;;;;2611890;54;20475;-62
2024/03/11 07:48:10;;;;;;;8.17;7.87;;;24.80;1.00;;;;;;2613140;39;20814;-62
2024/03/11 07:50:36;;;;;;;6.70;6.50;;;24.80;1.00;;;;;;2612149;54;20167;-62
2024/03/11 07:53:01;;;;;;;8.03;7.80;;;24.90;1.00;;;;;;2612910;39;20556;-61
2024/03/11 07:55:28;;;;;;;7.07;6.87;;;24.90;1.00;;;;;;2611314;54;20399;-61
2024/03/11 07:57:54;;;;;;;7.70;7.50;;;24.90;1.00;;;;;;2611938;54;20218;-60
2024/03/11 08:00:29;;;;;;;7.43;7.23;;;24.90;1.00;;;;;;2611618;47;20947;-61
2024/03/11 08:02:57;;;;;;;6.63;6.43;;;24.90;1.00;;;;;;2612397;54;20495;-60
2024/03/11 08:05:23;;;;;;;6.60;6.40;;;24.90;1.00;;;;;;2611818;54;20399;-61
2024/03/11 08:07:52;;;;;;;6.87;6.67;;;24.90;1.00;;;;;;2612670;54;20415;-61
2024/03/11 08:10:18;;;;;;;7.80;7.60;;;24.90;1.00;;;;;;2612734;54;20410;-58
2024/03/11 08:12:46;;;;;;;6.50;6.30;;;24.90;1.00;;;;;;2612041;54;20400;-57
2024/03/11 08:15:14;;;;;;;6.10;5.90;;;24.90;1.00;;;;;;2612656;54;20427;-58
2024/03/11 08:17:43;;;;;;;8.10;7.80;;;24.90;1.00;;;;;;2611979;54;20392;-59
2024/03/11 08:20:16;;;;;;;6.60;6.40;;;24.90;1.00;;;;;;2612560;54;20430;-62
2024/03/11 08:22:45;;;;;;;7.10;6.90;;;24.90;1.00;;;;;;2612064;39;20819;-62
2024/03/11 08:25:15;;;;;;;6.80;6.60;;;24.90;1.00;;;;;;2612365;54;20396;-62
2024/03/11 08:27:41;;;;;;;7.20;7.00;;;24.80;1.00;;;;;;2612416;54;20407;-62
2024/03/11 08:30:11;;;;;;;6.40;6.20;;;24.80;1.00;;;;;;2611266;54;20490;-59
2024/03/11 08:32:38;;;;;;;7.47;7.27;;;24.80;1.00;;;;;;2612976;39;20899;-58
2024/03/11 08:35:04;;;;;;;8.50;8.20;;;24.80;1.00;;;;;;2613189;39;20963;-59
2024/03/11 08:37:30;;;;;;;8.27;7.97;;;24.80;1.00;;;;;;2611787;54;20423;-58
2024/03/11 08:39:56;;;;;;;8.73;8.43;;;24.80;1.00;;;;;;2611981;54;20431;-59
2024/03/11 08:42:23;;;;;;;8.53;8.23;;;24.80;1.00;;;;;;2612091;54;20155;-59
2024/03/11 08:44:53;;;;;;;6.77;6.57;;;24.70;1.00;;;;;;2612053;54;20458;-59
2024/03/11 08:47:19;;;;;;;7.40;7.20;;;24.70;1.00;;;;;;2611946;54;20404;-61
2024/03/11 08:49:45;;;;;;;7.67;7.47;;;24.70;1.00;;;;;;2612542;39;21008;-58
2024/03/11 08:52:13;;;;;;;6.70;6.50;;;24.70;1.00;;;;;;2611439;54;20399;-58
2024/03/11 08:54:43;;;;;;;5.63;5.43;;;24.80;1.00;;;;;;2605153;54;20170;-58
2024/03/11 08:57:21;;;;;;;5.90;5.70;;;24.80;1.00;;;;;;2611096;54;20454;-58
2024/03/11 08:59:49;;;;;;;6.93;6.73;;;24.80;1.00;;;;;;2611493;54;20542;-58
2024/03/11 09:02:14;;;;;;;6.53;6.33;;;24.80;1.00;;;;;;2611271;54;20415;-59
2024/03/11 09:04:40;;;;;;;6.50;6.30;;;24.80;1.00;;;;;;2611295;54;20427;-58
2024/03/11 09:07:07;;;;;;;6.43;6.23;;;24.80;1.00;;;;;;2612051;54;20174;-59
2024/03/11 09:09:33;;;;;;;6.53;6.33;;;24.80;1.00;;;;;;2612246;39;20673;-59
2024/03/11 09:12:00;;;;;;;6.20;6.00;;;24.90;1.00;;;;;;2611834;54;21014;-59
2024/03/11 09:14:33;;;;;;;6.43;6.23;;;24.80;1.00;;;;;;2612689;39;20773;-59
2024/03/11 09:17:03;;;;;;;5.90;5.70;;;24.90;1.00;;;;;;2610785;54;20419;-59
2024/03/11 09:19:30;;;;;;;7.00;6.80;;;24.90;1.00;;;;;;2612385;54;20423;-60
2024/03/11 09:21:57;;;;;;;6.40;6.20;;;24.90;1.00;;;;;;2612043;54;20412;-59
2024/03/11 09:24:24;;;;;;;6.50;6.30;;;24.90;1.00;;;;;;2612642;54;20399;-59
2024/03/11 09:26:51;;;;;;;5.50;5.30;;;24.90;1.00;;;;;;2610907;54;21040;-60
2024/03/11 09:29:21;;;;;;;6.50;6.30;;;24.80;1.00;;;;;;2610686;54;21060;-63
2024/03/11 09:31:48;;;;;;;7.60;7.40;;;24.70;1.00;;;;;;2611341;54;20454;-62
2024/03/11 09:34:17;;;;;;;6.83;6.63;;;24.80;1.00;;;;;;2611290;54;20412;-61
2024/03/11 09:36:44;;;;;;;6.27;6.07;;;24.80;1.00;;;;;;2611584;54;21321;-62
2024/03/11 09:39:13;;;;;;;6.50;6.30;;;24.80;1.00;;;;;;2612281;54;20403;-61
2024/03/11 09:41:45;;;;;;;9.50;8.93;;;24.80;1.00;;;;;;2612057;52;20439;-60
2024/03/11 09:44:18;;;;;;;6.20;6.00;;;24.80;1.00;;;;;;2611585;47;20407;-61
2024/03/11 09:46:50;;;;;;;6.40;6.20;;;24.70;1.00;;;;;;2611145;54;20992;-62
2024/03/11 09:49:15;;;;;;;6.50;6.30;;;24.70;1.00;;;;;;2612511;54;20411;-61
2024/03/11 09:51:45;;;;;;;6.70;6.50;;;24.70;1.00;;;;;;2612684;54;20402;-61
2024/03/11 09:54:16;;;;;;;6.90;6.70;;;24.70;1.00;;;;;;2612267;54;20202;-60
2024/03/11 09:56:45;;;;;;;7.10;6.90;;;24.70;1.00;;;;;;2611836;54;20419;-61
2024/03/11 09:59:24;;;;;;;6.00;5.80;;;24.70;1.00;;;;;;2611792;54;20538;-61
2024/03/11 10:01:54;;;;;;;6.20;6.00;;;24.80;1.00;;;;;;2610737;54;20395;-61
2024/03/11 10:04:22;;;;;;;7.03;6.83;;;24.80;1.00;;;;;;2610305;39;20833;-61
2024/03/11 10:06:59;;;;;;;6.40;6.20;;;24.70;1.00;;;;;;2612339;39;20966;-61
2024/03/11 10:09:28;;;;;;;6.50;6.30;;;24.80;1.00;;;;;;2611887;54;20597;-62
2024/03/11 10:12:08;;;;;;;6.17;5.97;;;24.70;1.00;;;;;;2611003;54;20400;-62
2024/03/11 10:14:35;;;;;;;6.90;6.70;;;24.80;1.00;;;;;;2612062;54;20450;-60
2024/03/11 10:17:20;;;;;;;6.40;6.20;;;24.80;1.00;;;;;;2610692;54;20403;-61
2024/03/11 10:19:54;;;;;;;6.70;6.50;;;24.80;1.00;;;;;;2610823;54;21060;-61
2024/03/11 10:22:28;;;;;;;7.33;7.13;;;24.80;1.00;;;;;;2611427;54;20392;-61
2024/03/11 10:24:55;;;;;;;6.60;6.40;;;24.80;1.00;;;;;;2612490;47;20501;-60
2024/03/11 10:27:31;;;;;;;6.50;6.30;;;24.80;1.00;;;;;;2611436;47;20430;-61
2024/03/11 10:29:57;;;;;;;6.90;6.70;;;24.80;1.00;;;;;;2610442;54;20411;-58
2024/03/11 10:32:35;;;;;;;6.30;6.10;;;24.80;1.00;;;;;;2611683;46;20419;-58
2024/03/11 10:35:02;;;;;;;6.40;6.20;;;24.80;1.00;;;;;;2612095;54;20405;-59
2024/03/11 10:37:29;;;;;;;6.40;6.20;;;24.80;1.00;;;;;;2612294;54;20412;-58
2024/03/11 10:40:00;;;;;;;6.20;6.00;;;24.80;1.00;;;;;;2611883;54;20396;-58
2024/03/11 10:42:28;;;;;;;6.40;6.20;;;24.80;1.00;;;;;;2611632;39;20771;-58
2024/03/11 10:44:55;;;;;;;6.70;6.50;;;24.80;1.00;;;;;;2610852;54;20418;-58
2024/03/11 10:47:23;;;;;;;6.87;6.67;;;24.80;1.00;;;;;;2612030;54;20426;-58
2024/03/11 10:49:50;;;;;;;7.03;6.83;;;24.80;1.00;;;;;;2611692;54;20506;-58
2024/03/11 10:52:21;;;;;;;6.40;6.20;;;24.80;1.00;;;;;;2612218;54;20470;-58
2024/03/11 10:54:54;;;;;;;6.97;6.77;;;24.80;1.00;;;;;;2611656;47;20436;-58
2024/03/11 10:57:43;;;;;;;6.00;5.80;;;24.80;1.00;;;;;;2612249;47;20419;-58
2024/03/11 11:02:59;;;;;;;5.60;5.40;;;24.80;1.00;;;;;;2609675;46;20419;-58
2024/03/11 11:05:33;;;;;;;6.70;6.50;;;24.80;1.00;;;;;;2610324;54;20404;-58
2024/03/11 11:08:02;;;;;;;6.10;5.90;;;24.80;1.00;;;;;;2609153;47;20441;-58
2024/03/11 11:10:29;;;;;;;6.50;6.30;;;24.80;1.00;;;;;;2610030;47;20423;-58
2024/03/11 11:12:56;;;;;;;5.50;5.30;;;24.80;1.00;;;;;;2610154;54;20418;-58
2024/03/11 11:15:23;;;;;;;5.80;5.60;;;24.80;1.00;;;;;;2610175;39;20766;-58
2024/03/11 11:17:54;;;;;;;5.83;5.63;;;24.80;1.00;;;;;;2609048;47;20462;-58
2024/03/11 11:20:38;;;;;;;5.60;5.40;;;24.80;1.00;;;;;;2610378;54;20523;-58
2024/03/11 11:23:05;;;;;;;6.10;5.90;;;24.80;1.00;;;;;;2609663;39;20932;-58
2024/03/11 11:25:42;;;;;;;6.03;5.83;;;24.80;1.00;;;;;;2610532;54;20415;-59
2024/03/11 11:28:14;;;;;;;5.90;5.70;;;24.80;1.00;;;;;;2608894;54;21016;-59
2024/03/11 11:30:43;;;;;;;6.07;5.87;;;24.80;1.00;;;;;;2611875;47;20587;-59
2024/03/11 11:33:10;;;;;;;5.40;5.20;;;24.90;1.00;;;;;;2611347;47;20550;-59
2024/03/11 11:35:37;;;;;;;6.53;6.33;;;24.90;1.00;;;;;;2610986;54;20423;-59
2024/03/11 11:38:24;;;;;;;6.73;6.53;;;24.90;1.00;;;;;;2610942;54;20471;-59
2024/03/11 11:40:50;;;;;;;6.60;6.40;;;24.90;1.00;;;;;;2611404;54;20979;-58
2024/03/11 11:43:22;;;;;;;6.57;6.37;;;24.90;1.00;;;;;;2612587;54;20406;-58
2024/03/11 11:45:52;;;;;;;5.90;5.70;;;24.90;1.00;;;;;;2611150;39;20713;-58
2024/03/11 11:48:26;;;;;;;5.97;5.77;;;24.80;1.00;;;;;;2612312;54;20388;-58
2024/03/11 11:50:57;;;;;;;6.80;6.60;;;24.90;1.00;;;;;;2612419;54;20399;-61
2024/03/11 11:53:29;;;;;;;6.43;6.23;;;24.80;1.00;;;;;;2612696;39;21040;-61
2024/03/11 11:55:56;;;;;;;6.60;6.40;;;24.80;1.00;;;;;;2610028;54;20411;-61
2024/03/11 11:58:23;;;;;;;6.67;6.37;;;24.80;1.00;;;;;;2612155;54;20918;-61
2024/03/11 12:00:57;;;;;;;5.23;5.03;;;24.80;1.00;;;;;;2610806;54;20483;-58
2024/03/11 12:03:37;;;;;;;5.10;4.90;;;24.80;1.00;;;;;;2611521;51;20414;-59
2024/03/11 12:06:08;;;;;;;5.67;5.47;;;24.80;1.00;;;;;;2611163;54;20414;-59
2024/03/11 12:08:34;;;;;;;5.57;5.37;;;24.80;1.00;;;;;;2612636;54;20784;-59
2024/03/11 12:11:10;;;;;;;4.93;4.73;;;24.90;1.00;;;;;;2612310;54;20426;-59
2024/03/11 12:13:39;;;;;;;5.30;5.10;;;24.80;1.00;;;;;;2610603;47;20170;-59
2024/03/11 12:16:15;;;;;;;6.43;6.23;;;24.80;1.00;;;;;;2612246;47;20490;-59
2024/03/11 12:18:42;;;;;;;6.00;5.80;;;24.80;1.00;;;;;;2611621;54;20490;-59
2024/03/11 12:21:16;;;;;;;5.20;5.00;;;24.80;1.00;;;;;;2611257;47;20458;-59
2024/03/11 12:23:42;;;;;;;5.50;5.30;;;24.80;1.00;;;;;;2612353;54;20407;-59
2024/03/11 12:26:12;;;;;;;5.80;5.60;;;24.90;1.00;;;;;;2612373;39;21063;-59
2024/03/11 12:28:43;;;;;;;5.93;5.73;;;24.90;1.00;;;;;;2611177;54;20450;-59
2024/03/11 12:31:15;;;;;;;5.57;5.37;;;24.80;1.00;;;;;;2608419;54;20482;-59
2024/03/11 12:33:44;;;;;;;5.50;5.30;;;24.90;1.00;;;;;;2611151;54;20400;-59
2024/03/11 12:36:10;;;;;;;5.20;5.00;;;24.90;1.00;;;;;;2611866;39;20816;-59
2024/03/11 12:38:36;;;;;;;5.40;5.20;;;24.90;1.00;;;;;;2611819;54;20461;-59
2024/03/11 12:41:03;;;;;;;5.30;5.10;;;24.80;1.00;;;;;;2610242;54;20167;-59
2024/03/11 12:43:35;;;;;;;5.57;5.37;;;24.90;1.00;;;;;;2611996;54;20449;-59
2024/03/11 12:46:05;;;;;;;5.40;5.20;;;24.80;1.00;;;;;;2611932;54;20399;-58
2024/03/11 12:48:31;;;;;;;5.70;5.50;;;24.90;1.00;;;;;;2610633;39;20835;-58
2024/03/11 12:50:58;;;;;;;5.10;4.90;;;24.80;1.00;;;;;;2611707;54;20475;-61
2024/03/11 12:53:27;;;;;;;5.80;5.60;;;24.90;1.00;;;;;;2611431;47;20471;-61
2024/03/11 12:56:02;;;;;;;4.93;4.73;;;24.90;1.00;;;;;;2609431;54;20411;-61
2024/03/11 12:58:30;;;;;;;5.60;5.40;;;24.90;1.00;;;;;;2611637;54;20453;-61
2024/03/11 13:01:04;;;;;;;5.53;5.33;;;24.90;1.00;;;;;;2610562;54;20431;-59
2024/03/11 13:03:31;;;;;;;5.80;5.60;;;24.90;1.00;;;;;;2610077;54;20410;-59